NCAR-RAP Real-Time Weather Data

Output produced by METARs form (24 July 2014  17:41 UTC)
found at http://weather.rap.ucar.edu/surface/
 
Conditions at: KALB observed 24 July 2014  16:51 UTC
Temperature: 23.9°C (75°F)
Dewpoint: 14.4°C (58°F) [RH = 55%]
Pressure (altimeter): 29.91 inches Hg (1013.0 mb)
[Sea-level pressure: 1012.8 mb]
Winds: from the NNW (340 degrees) at 6 MPH (5 knots; 2.6 m/s)
Visibility: 10 or more miles (16+ km)
Ceiling: 27000 feet AGL
Clouds: scattered clouds at 3500 feet AGL
scattered clouds at 5500 feet AGL
broken clouds at 27000 feet AGL
Present Weather: no significant weather observed at this time
KALB 241651Z 34005KT 10SM SCT035 SCT055 BKN270 24/14 A2991 RMK AO2 SLP128 T02390144

Conditions at: KALB observed 24 July 2014  15:51 UTC
Temperature: 23.3°C (74°F)
Dewpoint: 14.4°C (58°F) [RH = 57%]
Pressure (altimeter): 29.92 inches Hg (1013.3 mb)
[Sea-level pressure: 1013.0 mb]
Winds: from the N (10 degrees) at 10 MPH (9 knots; 4.7 m/s)
Visibility: 10 or more miles (16+ km)
Ceiling: 27000 feet AGL
Clouds: scattered clouds at 3100 feet AGL
scattered clouds at 5000 feet AGL
broken clouds at 27000 feet AGL
Present Weather: no significant weather observed at this time
KALB 241551Z 01009KT 10SM SCT031 SCT050 BKN270 23/14 A2992 RMK AO2 SLP130 T02330144

Conditions at: KALB observed 24 July 2014  14:51 UTC
Temperature: 22.2°C (72°F)
Dewpoint: 14.4°C (58°F) [RH = 61%]
Pressure (altimeter): 29.92 inches Hg (1013.3 mb)
[Sea-level pressure: 1013.0 mb]
Winds: from the NNE (20 degrees) at 8 MPH (7 knots; 3.6 m/s)
Visibility: 10 or more miles (16+ km)
Ceiling: 27000 feet AGL
Clouds: few clouds at 2800 feet AGL
broken clouds at 27000 feet AGL
Present Weather: no significant weather observed at this time
KALB 241451Z 02007KT 10SM FEW028 BKN270 22/14 A2992 RMK AO2 SLP130 FEW V SCT T02220144 51002

Conditions at: KALB observed 24 July 2014  13:51 UTC
Temperature: 20.6°C (69°F)
Dewpoint: 13.9°C (57°F) [RH = 65%]
Pressure (altimeter): 29.92 inches Hg (1013.3 mb)
[Sea-level pressure: 1012.9 mb]
Winds: from the NNE (30 degrees) at 12 MPH (10 knots; 5.2 m/s)
Visibility: 10 or more miles (16+ km)
Ceiling: 27000 feet AGL
Clouds: scattered clouds at 3100 feet AGL
scattered clouds at 15000 feet AGL
broken clouds at 27000 feet AGL
Present Weather: no significant weather observed at this time
KALB 241351Z 03010KT 10SM SCT031 SCT150 BKN270 21/14 A2992 RMK AO2 SLP129 T02060139

Conditions at: KALB observed 24 July 2014  12:51 UTC
Temperature: 20.0°C (68°F)
Dewpoint: 14.4°C (58°F) [RH = 70%]
Pressure (altimeter): 29.92 inches Hg (1013.3 mb)
[Sea-level pressure: 1013.1 mb]
Winds: from the N (10 degrees) at 10 MPH (9 knots; 4.7 m/s)
Visibility: 10 or more miles (16+ km)
Ceiling: 3000 feet AGL
Clouds: scattered clouds at 2200 feet AGL
broken clouds at 3000 feet AGL
broken clouds at 22000 feet AGL
broken clouds at 27000 feet AGL
Present Weather: no significant weather observed at this time
KALB 241251Z 01009KT 10SM SCT022 BKN030 BKN220 BKN270 20/14 A2992 RMK AO2 SLP131 T02000144

Conditions at: KALB observed 24 July 2014  12:37 UTC
Temperature: 19.4°C (67°F)
Dewpoint: 15.0°C (59°F) [RH = 76%]
Pressure (altimeter): 29.92 inches Hg (1013.3 mb)
Winds: from the N (10 degrees) at 8 MPH (7 knots; 3.6 m/s)
Visibility: 10 or more miles (16+ km)
Ceiling: 2800 feet AGL
Clouds: scattered clouds at 2200 feet AGL
broken clouds at 2800 feet AGL
broken clouds at 27000 feet AGL
Present Weather: no significant weather observed at this time
KALB 241237Z 01007KT 10SM SCT022 BKN028 BKN270 19/15 A2992 RMK AO2 T01940150

Conditions at: KALB observed 24 July 2014  11:51 UTC
Temperature: 20.0°C (68°F)
Dewpoint: 15.6°C (60°F) [RH = 76%]
Pressure (altimeter): 29.91 inches Hg (1013.0 mb)
[Sea-level pressure: 1012.8 mb]
Winds: from the N (350 degrees) at 9 MPH (8 knots; 4.2 m/s)
Visibility: 10 or more miles (16+ km)
Ceiling: 22000 feet AGL
Clouds: few clouds at 2000 feet AGL
scattered clouds at 3800 feet AGL
scattered clouds at 6000 feet AGL
broken clouds at 22000 feet AGL
Present Weather: no significant weather observed at this time
KALB 241151Z 35008KT 10SM FEW020 SCT038 SCT060 BKN220 BKN280 20/16 A2991 RMK AO2 SLP128 70021 T02000156 10206 20183 52020

Conditions at: KALB observed 24 July 2014  10:51 UTC
Temperature: 18.3°C (65°F)
Dewpoint: 15.6°C (60°F) [RH = 84%]
Pressure (altimeter): 29.89 inches Hg (1012.3 mb)
[Sea-level pressure: 1012.1 mb]
Winds: from the NNW (340 degrees) at 7 MPH (6 knots; 3.1 m/s)
Visibility: 10 or more miles (16+ km)
Ceiling: 5000 feet AGL
Clouds: few clouds at 1000 feet AGL
few clouds at 3800 feet AGL
broken clouds at 5000 feet AGL
broken clouds at 23000 feet AGL
Present Weather:
SOME DATA ABOVE MAY BE INACCURATE!!!
"$" is an indication the sensor requires maintenance
KALB 241051Z 34006KT 10SM FEW010 FEW038 BKN050 BKN230 18/16 A2989 RMK AO2 SLP121 T01830156 $

Conditions at: KALB observed 24 July 2014  09:51 UTC
Temperature: 18.3°C (65°F)
Dewpoint: 15.6°C (60°F) [RH = 84%]
Pressure (altimeter): 29.88 inches Hg (1011.9 mb)
[Sea-level pressure: 1011.5 mb]
Winds: from the NNW (330 degrees) at 7 MPH (6 knots; 3.1 m/s)
Visibility: 10 or more miles (16+ km)
Ceiling: 4500 feet AGL
Clouds: few clouds at 1000 feet AGL
broken clouds at 4500 feet AGL
overcast cloud deck at 23000 feet AGL
Present Weather:
SOME DATA ABOVE MAY BE INACCURATE!!!
"$" is an indication the sensor requires maintenance
KALB 240951Z 33006KT 10SM FEW010 BKN045 OVC230 18/16 A2988 RMK AO2 SLP115 T01830156 $

Conditions at: KALB observed 24 July 2014  08:51 UTC
Temperature: 18.9°C (66°F)
Dewpoint: 15.6°C (60°F) [RH = 81%]
Pressure (altimeter): 29.86 inches Hg (1011.3 mb)
[Sea-level pressure: 1010.8 mb]
Winds: from the NW (320 degrees) at 6 MPH (5 knots; 2.6 m/s)
Visibility: 10 or more miles (16+ km)
Ceiling: 3800 feet AGL
Clouds: scattered clouds at 2600 feet AGL
broken clouds at 3800 feet AGL
overcast cloud deck at 23000 feet AGL
Present Weather:
SOME DATA ABOVE MAY BE INACCURATE!!!
"$" is an indication the sensor requires maintenance
KALB 240851Z 32005KT 10SM SCT026 BKN038 OVC230 19/16 A2986 RMK AO2 SLP108 T01890156 53004 $

Conditions at: KALB observed 24 July 2014  07:51 UTC
Temperature: 19.4°C (67°F)
Dewpoint: 16.7°C (62°F) [RH = 84%]
Pressure (altimeter): 29.84 inches Hg (1010.6 mb)
[Sea-level pressure: 1010.2 mb]
Winds: from the NNW (330 degrees) at 7 MPH (6 knots; 3.1 m/s)
Visibility: 10 or more miles (16+ km)
Ceiling: 2900 feet AGL
Clouds: broken clouds at 2900 feet AGL
overcast cloud deck at 3800 feet AGL
Present Weather:
SOME DATA ABOVE MAY BE INACCURATE!!!
"$" is an indication the sensor requires maintenance
KALB 240751Z 33006KT 10SM BKN029 OVC038 19/17 A2984 RMK AO2 SLP102 T01940167 $

Conditions at: KALB observed 24 July 2014  06:51 UTC
Temperature: 20.0°C (68°F)
Dewpoint: 17.8°C (64°F) [RH = 87%]
Pressure (altimeter): 29.83 inches Hg (1010.2 mb)
[Sea-level pressure: 1009.9 mb]
Winds: from the NNW (330 degrees) at 8 MPH (7 knots; 3.6 m/s)
Visibility: 10 or more miles (16+ km)
Ceiling: 7500 feet AGL
Clouds: few clouds at 800 feet AGL
few clouds at 1400 feet AGL
overcast cloud deck at 7500 feet AGL
Present Weather:
SOME DATA ABOVE MAY BE INACCURATE!!!
"$" is an indication the sensor requires maintenance
KALB 240651Z 33007KT 10SM FEW008 FEW014 OVC075 20/18 A2983 RMK AO2 SLP099 T02000178 $

Conditions at: KALB observed 24 July 2014  06:40 UTC
Temperature: 20.6°C (69°F)
Dewpoint: 18.3°C (65°F) [RH = 87%]
Pressure (altimeter): 29.83 inches Hg (1010.2 mb)
Winds: from the NNW (340 degrees) at 6 MPH (5 knots; 2.6 m/s)
Visibility: 10 or more miles (16+ km)
Ceiling: 6500 feet AGL
Clouds: few clouds at 800 feet AGL
scattered clouds at 1400 feet AGL
overcast cloud deck at 6500 feet AGL
Present Weather:
SOME DATA ABOVE MAY BE INACCURATE!!!
"$" is an indication the sensor requires maintenance
KALB 240640Z 34005KT 10SM FEW008 SCT014 OVC065 21/18 A2983 RMK AO2 T02060183 $

Conditions at: KALB observed 24 July 2014  06:03 UTC
Temperature: 20.6°C (69°F)
Dewpoint: 18.9°C (66°F) [RH = 90%]
Pressure (altimeter): 29.84 inches Hg (1010.6 mb)
Winds: from the NNW (340 degrees) at 6 MPH (5 knots; 2.6 m/s)
Visibility: 10 or more miles (16+ km)
Ceiling: 1400 feet AGL
Clouds: few clouds at 800 feet AGL
broken clouds at 1400 feet AGL
overcast cloud deck at 3300 feet AGL
Present Weather:
SOME DATA ABOVE MAY BE INACCURATE!!!
"$" is an indication the sensor requires maintenance
KALB 240603Z 34005KT 10SM FEW008 BKN014 OVC033 21/19 A2984 RMK AO2 T02060189 $

Conditions at: KALB observed 24 July 2014  05:51 UTC
Temperature: 20.6°C (69°F)
Dewpoint: 18.9°C (66°F) [RH = 90%]
Pressure (altimeter): 29.84 inches Hg (1010.6 mb)
[Sea-level pressure: 1010.3 mb]
Winds: from the NNW (330 degrees) at 7 MPH (6 knots; 3.1 m/s)
Visibility: 10 or more miles (16+ km)
Ceiling: 2200 feet AGL
Clouds: scattered clouds at 1400 feet AGL
broken clouds at 2200 feet AGL
overcast cloud deck at 7000 feet AGL
Present Weather:
SOME DATA ABOVE MAY BE INACCURATE!!!
"$" is an indication the sensor requires maintenance
KALB 240551Z 33006KT 10SM SCT014 BKN022 OVC070 21/19 A2984 RMK AO2 SLP103 60007 T02060189 10233 20206 58001 $